logo
Rechercher aéroport 
image banner adimage banner adimage banner ad
image banner ad

5CL5 - Kcin Emergency

Situé à Irvine, United States

ICAO - 5CL5, IATA -

Données fournies par Airmate  

Information générale

Coordonnées: N33°41'9" W117°51'16"
Élévation : 165 feet MSL.
Variation magnétique : 14° East
Voir autres Aéroports à California

Données opérationnelles

Special qualification required
Heure actuelle UTC:
Heure actuelle locale:
METAR: KSNA 011653Z 01004KT 10SM OVC023 22/14 A2990 RMK AO2 SLP122 T02170139
TAF: KSNA 011126Z 0112/0212 VRB04KT P6SM OVC020 FM011800 21008KT P6SM FEW025 FM020500 VRB04KT P6SM BKN022
Voir NOTAMs / SUP AIP / TFR affectant cet aéroport [VIEW]
Fréquences de communication: [VIEW]

Pistes:

Coordonnées de l'aéroport

Adresse: Irvine United States

Vue satellite de 5CL5